sensor_id;sensor_type;location;lat;lon;timestamp;P1;durP1;ratioP1;P2;durP2;ratioP2
53245;SDS011;39569;51.090;-1.786;2023-10-31T00:02:11;1.67;;;1.58;;
53245;SDS011;39569;51.090;-1.786;2023-10-31T00:04:39;3.20;;;2.15;;
53245;SDS011;39569;51.090;-1.786;2023-10-31T00:07:06;6.10;;;5.50;;
53245;SDS011;39569;51.090;-1.786;2023-10-31T00:09:33;2.42;;;2.33;;
53245;SDS011;39569;51.090;-1.786;2023-10-31T00:11:59;2.55;;;2.38;;
53245;SDS011;39569;51.090;-1.786;2023-10-31T00:14:26;2.03;;;1.92;;
53245;SDS011;39569;51.090;-1.786;2023-10-31T00:16:53;2.78;;;1.63;;
53245;SDS011;39569;51.090;-1.786;2023-10-31T00:19:20;9.63;;;8.70;;
53245;SDS011;39569;51.090;-1.786;2023-10-31T00:21:48;8.90;;;8.07;;
53245;SDS011;39569;51.090;-1.786;2023-10-31T00:24:15;3.95;;;3.65;;
53245;SDS011;39569;51.090;-1.786;2023-10-31T00:26:42;6.35;;;5.85;;
53245;SDS011;39569;51.090;-1.786;2023-10-31T00:29:09;4.60;;;4.22;;
53245;SDS011;39569;51.090;-1.786;2023-10-31T00:31:36;3.42;;;2.88;;
53245;SDS011;39569;51.090;-1.786;2023-10-31T00:34:06;3.58;;;3.28;;
53245;SDS011;39569;51.090;-1.786;2023-10-31T00:36:33;4.72;;;3.33;;
53245;SDS011;39569;51.090;-1.786;2023-10-31T00:39:01;5.10;;;4.60;;
53245;SDS011;39569;51.090;-1.786;2023-10-31T00:41:28;4.85;;;4.50;;
53245;SDS011;39569;51.090;-1.786;2023-10-31T00:43:54;3.28;;;3.08;;
53245;SDS011;39569;51.090;-1.786;2023-10-31T00:46:21;16.02;;;9.40;;
53245;SDS011;39569;51.090;-1.786;2023-10-31T00:48:48;11.60;;;10.27;;
53245;SDS011;39569;51.090;-1.786;2023-10-31T00:51:15;4.35;;;3.95;;
53245;SDS011;39569;51.090;-1.786;2023-10-31T00:53:42;10.25;;;9.05;;
53245;SDS011;39569;51.090;-1.786;2023-10-31T00:56:10;10.73;;;9.63;;
53245;SDS011;39569;51.090;-1.786;2023-10-31T00:58:37;2.35;;;2.25;;
53245;SDS011;39569;51.090;-1.786;2023-10-31T01:01:03;7.30;;;3.97;;
53245;SDS011;39569;51.090;-1.786;2023-10-31T01:03:30;5.75;;;4.00;;
53245;SDS011;39569;51.090;-1.786;2023-10-31T01:05:57;11.88;;;9.60;;
53245;SDS011;39569;51.090;-1.786;2023-10-31T01:08:24;11.60;;;10.38;;
53245;SDS011;39569;51.090;-1.786;2023-10-31T01:10:50;9.93;;;8.90;;
53245;SDS011;39569;51.090;-1.786;2023-10-31T01:13:18;14.57;;;4.35;;
53245;SDS011;39569;51.090;-1.786;2023-10-31T01:15:45;10.25;;;9.25;;
53245;SDS011;39569;51.090;-1.786;2023-10-31T01:18:12;4.28;;;3.97;;
53245;SDS011;39569;51.090;-1.786;2023-10-31T01:20:39;3.67;;;3.13;;
53245;SDS011;39569;51.090;-1.786;2023-10-31T01:23:05;10.27;;;9.23;;
53245;SDS011;39569;51.090;-1.786;2023-10-31T01:25:32;10.02;;;9.23;;
53245;SDS011;39569;51.090;-1.786;2023-10-31T01:27:59;11.13;;;9.98;;
53245;SDS011;39569;51.090;-1.786;2023-10-31T01:30:27;10.07;;;9.13;;
53245;SDS011;39569;51.090;-1.786;2023-10-31T01:32:54;4.07;;;3.67;;
53245;SDS011;39569;51.090;-1.786;2023-10-31T01:35:20;5.05;;;4.05;;
53245;SDS011;39569;51.090;-1.786;2023-10-31T01:37:47;4.28;;;3.17;;
53245;SDS011;39569;51.090;-1.786;2023-10-31T01:40:14;6.60;;;5.05;;
53245;SDS011;39569;51.090;-1.786;2023-10-31T01:42:41;4.53;;;4.18;;
53245;SDS011;39569;51.090;-1.786;2023-10-31T01:45:07;5.88;;;5.22;;
53245;SDS011;39569;51.090;-1.786;2023-10-31T01:47:36;12.20;;;9.52;;
53245;SDS011;39569;51.090;-1.786;2023-10-31T01:50:03;11.45;;;10.23;;
53245;SDS011;39569;51.090;-1.786;2023-10-31T01:52:33;4.70;;;4.32;;
53245;SDS011;39569;51.090;-1.786;2023-10-31T01:55:01;10.35;;;6.10;;
53245;SDS011;39569;51.090;-1.786;2023-10-31T01:57:29;10.90;;;9.88;;
53245;SDS011;39569;51.090;-1.786;2023-10-31T01:59:56;11.60;;;10.45;;
53245;SDS011;39569;51.090;-1.786;2023-10-31T02:02:22;10.98;;;9.85;;
53245;SDS011;39569;51.090;-1.786;2023-10-31T02:04:52;3.72;;;3.42;;
53245;SDS011;39569;51.090;-1.786;2023-10-31T02:07:19;20.83;;;11.05;;
53245;SDS011;39569;51.090;-1.786;2023-10-31T02:09:46;9.60;;;4.22;;
53245;SDS011;39569;51.090;-1.786;2023-10-31T02:14:58;6.93;;;4.15;;
53245;SDS011;39569;51.090;-1.786;2023-10-31T02:17:25;5.82;;;4.07;;
53245;SDS011;39569;51.090;-1.786;2023-10-31T02:19:53;11.20;;;10.20;;
53245;SDS011;39569;51.090;-1.786;2023-10-31T02:22:22;12.55;;;8.73;;
53245;SDS011;39569;51.090;-1.786;2023-10-31T02:24:48;10.55;;;9.35;;
53245;SDS011;39569;51.090;-1.786;2023-10-31T02:27:15;5.35;;;4.45;;
53245;SDS011;39569;51.090;-1.786;2023-10-31T02:29:42;3.30;;;3.10;;
53245;SDS011;39569;51.090;-1.786;2023-10-31T02:32:09;4.45;;;4.00;;
53245;SDS011;39569;51.090;-1.786;2023-10-31T02:34:35;9.23;;;8.30;;
53245;SDS011;39569;51.090;-1.786;2023-10-31T02:37:02;10.35;;;8.43;;
53245;SDS011;39569;51.090;-1.786;2023-10-31T02:39:31;8.35;;;7.50;;
53245;SDS011;39569;51.090;-1.786;2023-10-31T02:41:58;8.30;;;5.50;;
53245;SDS011;39569;51.090;-1.786;2023-10-31T02:44:25;2.55;;;2.40;;
53245;SDS011;39569;51.090;-1.786;2023-10-31T02:46:52;5.22;;;2.97;;
53245;SDS011;39569;51.090;-1.786;2023-10-31T02:49:18;9.23;;;5.35;;
53245;SDS011;39569;51.090;-1.786;2023-10-31T02:51:45;5.55;;;4.82;;
53245;SDS011;39569;51.090;-1.786;2023-10-31T02:54:12;2.30;;;2.20;;
53245;SDS011;39569;51.090;-1.786;2023-10-31T02:56:40;3.10;;;1.95;;
53245;SDS011;39569;51.090;-1.786;2023-10-31T02:59:07;6.78;;;5.75;;
53245;SDS011;39569;51.090;-1.786;2023-10-31T03:01:34;2.42;;;2.22;;
53245;SDS011;39569;51.090;-1.786;2023-10-31T03:04:01;5.30;;;2.97;;
53245;SDS011;39569;51.090;-1.786;2023-10-31T03:06:28;7.80;;;6.28;;
53245;SDS011;39569;51.090;-1.786;2023-10-31T03:08:55;7.95;;;6.60;;
53245;SDS011;39569;51.090;-1.786;2023-10-31T03:11:21;14.57;;;6.15;;
53245;SDS011;39569;51.090;-1.786;2023-10-31T03:13:50;10.40;;;6.65;;
53245;SDS011;39569;51.090;-1.786;2023-10-31T03:16:17;4.00;;;3.65;;
53245;SDS011;39569;51.090;-1.786;2023-10-31T03:18:45;8.27;;;7.25;;
53245;SDS011;39569;51.090;-1.786;2023-10-31T03:21:11;2.92;;;2.65;;
53245;SDS011;39569;51.090;-1.786;2023-10-31T03:23:38;6.75;;;3.72;;
53245;SDS011;39569;51.090;-1.786;2023-10-31T03:26:05;2.72;;;2.53;;
53245;SDS011;39569;51.090;-1.786;2023-10-31T03:28:32;8.02;;;7.32;;
53245;SDS011;39569;51.090;-1.786;2023-10-31T03:31:00;7.93;;;7.30;;
53245;SDS011;39569;51.090;-1.786;2023-10-31T03:33:26;10.15;;;7.63;;
53245;SDS011;39569;51.090;-1.786;2023-10-31T03:35:53;8.65;;;7.80;;
53245;SDS011;39569;51.090;-1.786;2023-10-31T03:38:20;8.88;;;7.63;;
53245;SDS011;39569;51.090;-1.786;2023-10-31T03:40:47;10.23;;;8.32;;
53245;SDS011;39569;51.090;-1.786;2023-10-31T03:43:13;8.10;;;7.00;;
53245;SDS011;39569;51.090;-1.786;2023-10-31T03:45:40;8.77;;;7.82;;
53245;SDS011;39569;51.090;-1.786;2023-10-31T03:48:08;4.93;;;4.28;;
53245;SDS011;39569;51.090;-1.786;2023-10-31T03:50:35;3.35;;;3.00;;
53245;SDS011;39569;51.090;-1.786;2023-10-31T03:53:02;10.05;;;7.72;;
53245;SDS011;39569;51.090;-1.786;2023-10-31T03:55:29;7.07;;;4.40;;
53245;SDS011;39569;51.090;-1.786;2023-10-31T03:57:56;7.90;;;7.10;;
53245;SDS011;39569;51.090;-1.786;2023-10-31T04:00:23;9.93;;;8.30;;
53245;SDS011;39569;51.090;-1.786;2023-10-31T04:02:50;5.00;;;3.42;;
53245;SDS011;39569;51.090;-1.786;2023-10-31T04:05:18;5.68;;;4.07;;
53245;SDS011;39569;51.090;-1.786;2023-10-31T04:07:46;3.05;;;2.85;;
53245;SDS011;39569;51.090;-1.786;2023-10-31T04:10:12;8.00;;;7.28;;
53245;SDS011;39569;51.090;-1.786;2023-10-31T04:12:40;13.15;;;9.10;;
53245;SDS011;39569;51.090;-1.786;2023-10-31T04:15:07;10.02;;;7.25;;
53245;SDS011;39569;51.090;-1.786;2023-10-31T04:17:34;3.67;;;3.47;;
53245;SDS011;39569;51.090;-1.786;2023-10-31T04:20:01;8.63;;;7.45;;
53245;SDS011;39569;51.090;-1.786;2023-10-31T04:22:30;11.25;;;7.80;;
53245;SDS011;39569;51.090;-1.786;2023-10-31T04:24:56;8.95;;;8.15;;
53245;SDS011;39569;51.090;-1.786;2023-10-31T04:27:23;4.85;;;3.95;;
53245;SDS011;39569;51.090;-1.786;2023-10-31T04:29:50;2.60;;;2.42;;
53245;SDS011;39569;51.090;-1.786;2023-10-31T04:32:17;8.00;;;5.85;;
53245;SDS011;39569;51.090;-1.786;2023-10-31T04:34:43;6.80;;;5.60;;
53245;SDS011;39569;51.090;-1.786;2023-10-31T04:37:10;5.35;;;4.85;;
53245;SDS011;39569;51.090;-1.786;2023-10-31T04:39:38;1.13;;;1.02;;
53245;SDS011;39569;51.090;-1.786;2023-10-31T04:42:05;5.47;;;2.40;;
53245;SDS011;39569;51.090;-1.786;2023-10-31T04:44:32;6.05;;;5.05;;
53245;SDS011;39569;51.090;-1.786;2023-10-31T04:46:58;6.68;;;4.40;;
53245;SDS011;39569;51.090;-1.786;2023-10-31T04:49:25;1.83;;;1.73;;
53245;SDS011;39569;51.090;-1.786;2023-10-31T04:51:52;5.93;;;2.85;;
53245;SDS011;39569;51.090;-1.786;2023-10-31T04:54:18;1.27;;;1.23;;
53245;SDS011;39569;51.090;-1.786;2023-10-31T04:56:48;5.22;;;3.35;;
53245;SDS011;39569;51.090;-1.786;2023-10-31T04:59:15;4.63;;;4.22;;
53245;SDS011;39569;51.090;-1.786;2023-10-31T05:01:47;4.80;;;3.88;;
53245;SDS011;39569;51.090;-1.786;2023-10-31T05:04:15;0.75;;;0.75;;
53245;SDS011;39569;51.090;-1.786;2023-10-31T05:06:42;4.45;;;4.05;;
53245;SDS011;39569;51.090;-1.786;2023-10-31T05:09:09;3.67;;;3.35;;
53245;SDS011;39569;51.090;-1.786;2023-10-31T05:11:36;10.88;;;4.65;;
53245;SDS011;39569;51.090;-1.786;2023-10-31T05:14:04;2.25;;;2.15;;
53245;SDS011;39569;51.090;-1.786;2023-10-31T05:16:31;1.17;;;1.17;;
53245;SDS011;39569;51.090;-1.786;2023-10-31T05:18:58;7.80;;;3.90;;
53245;SDS011;39569;51.090;-1.786;2023-10-31T05:21:29;5.03;;;3.20;;
53245;SDS011;39569;51.090;-1.786;2023-10-31T05:23:56;3.58;;;3.28;;
53245;SDS011;39569;51.090;-1.786;2023-10-31T05:26:23;2.03;;;1.67;;
53245;SDS011;39569;51.090;-1.786;2023-10-31T05:28:49;3.45;;;2.75;;
53245;SDS011;39569;51.090;-1.786;2023-10-31T05:31:18;4.68;;;3.42;;
53245;SDS011;39569;51.090;-1.786;2023-10-31T05:33:44;4.47;;;4.05;;
53245;SDS011;39569;51.090;-1.786;2023-10-31T05:36:17;1.90;;;1.65;;
53245;SDS011;39569;51.090;-1.786;2023-10-31T05:38:44;4.30;;;3.50;;
53245;SDS011;39569;51.090;-1.786;2023-10-31T05:41:11;4.07;;;3.78;;
53245;SDS011;39569;51.090;-1.786;2023-10-31T05:43:38;4.97;;;4.10;;
53245;SDS011;39569;51.090;-1.786;2023-10-31T05:46:04;1.90;;;1.75;;
53245;SDS011;39569;51.090;-1.786;2023-10-31T05:48:33;6.15;;;4.35;;
53245;SDS011;39569;51.090;-1.786;2023-10-31T05:51:00;2.67;;;1.20;;
53245;SDS011;39569;51.090;-1.786;2023-10-31T05:53:26;1.52;;;1.52;;
53245;SDS011;39569;51.090;-1.786;2023-10-31T05:55:53;2.13;;;2.03;;
53245;SDS011;39569;51.090;-1.786;2023-10-31T05:58:20;1.02;;;1.02;;
53245;SDS011;39569;51.090;-1.786;2023-10-31T06:00:47;2.13;;;2.03;;
53245;SDS011;39569;51.090;-1.786;2023-10-31T06:03:13;6.15;;;4.43;;
53245;SDS011;39569;51.090;-1.786;2023-10-31T06:05:40;7.18;;;4.60;;
53245;SDS011;39569;51.090;-1.786;2023-10-31T06:08:08;5.90;;;5.38;;
53245;SDS011;39569;51.090;-1.786;2023-10-31T06:10:35;5.43;;;4.38;;
53245;SDS011;39569;51.090;-1.786;2023-10-31T06:13:02;5.95;;;5.45;;
53245;SDS011;39569;51.090;-1.786;2023-10-31T06:15:29;4.50;;;4.07;;
53245;SDS011;39569;51.090;-1.786;2023-10-31T06:17:55;4.68;;;4.28;;
53245;SDS011;39569;51.090;-1.786;2023-10-31T06:20:22;1.42;;;1.33;;
53245;SDS011;39569;51.090;-1.786;2023-10-31T06:22:50;1.58;;;1.55;;
53245;SDS011;39569;51.090;-1.786;2023-10-31T06:25:17;1.55;;;1.55;;
53245;SDS011;39569;51.090;-1.786;2023-10-31T06:27:43;6.18;;;2.60;;
53245;SDS011;39569;51.090;-1.786;2023-10-31T06:30:11;10.60;;;2.72;;
53245;SDS011;39569;51.090;-1.786;2023-10-31T06:32:38;5.38;;;4.20;;
53245;SDS011;39569;51.090;-1.786;2023-10-31T06:35:06;2.10;;;2.00;;
53245;SDS011;39569;51.090;-1.786;2023-10-31T06:37:33;8.27;;;1.33;;
53245;SDS011;39569;51.090;-1.786;2023-10-31T06:40:02;31.52;;;6.95;;
53245;SDS011;39569;51.090;-1.786;2023-10-31T06:42:29;2.30;;;2.20;;
53245;SDS011;39569;51.090;-1.786;2023-10-31T06:44:56;1.88;;;1.77;;
53245;SDS011;39569;51.090;-1.786;2023-10-31T06:47:23;2.20;;;2.10;;
53245;SDS011;39569;51.090;-1.786;2023-10-31T06:49:50;1.98;;;1.88;;
53245;SDS011;39569;51.090;-1.786;2023-10-31T06:52:16;35.80;;;3.13;;
53245;SDS011;39569;51.090;-1.786;2023-10-31T06:54:43;20.50;;;5.65;;
53245;SDS011;39569;51.090;-1.786;2023-10-31T06:57:11;3.83;;;3.58;;
53245;SDS011;39569;51.090;-1.786;2023-10-31T06:59:38;4.28;;;3.97;;
53245;SDS011;39569;51.090;-1.786;2023-10-31T07:02:05;5.20;;;3.85;;
53245;SDS011;39569;51.090;-1.786;2023-10-31T07:04:32;1.50;;;1.48;;
53245;SDS011;39569;51.090;-1.786;2023-10-31T07:06:59;14.48;;;3.67;;
53245;SDS011;39569;51.090;-1.786;2023-10-31T07:09:25;27.05;;;4.18;;
53245;SDS011;39569;51.090;-1.786;2023-10-31T07:11:53;0.82;;;0.82;;
53245;SDS011;39569;51.090;-1.786;2023-10-31T07:14:21;1.38;;;1.17;;
53245;SDS011;39569;51.090;-1.786;2023-10-31T07:16:48;2.20;;;2.10;;
53245;SDS011;39569;51.090;-1.786;2023-10-31T07:19:14;2.38;;;2.10;;
53245;SDS011;39569;51.090;-1.786;2023-10-31T07:21:41;1.80;;;1.65;;
53245;SDS011;39569;51.090;-1.786;2023-10-31T07:24:08;8.73;;;5.20;;
53245;SDS011;39569;51.090;-1.786;2023-10-31T07:26:35;8.63;;;5.78;;
53245;SDS011;39569;51.090;-1.786;2023-10-31T07:29:02;2.90;;;2.60;;
53245;SDS011;39569;51.090;-1.786;2023-10-31T07:31:30;7.05;;;4.75;;
53245;SDS011;39569;51.090;-1.786;2023-10-31T07:33:57;4.22;;;3.92;;
53245;SDS011;39569;51.090;-1.786;2023-10-31T07:36:23;2.50;;;2.30;;
53245;SDS011;39569;51.090;-1.786;2023-10-31T07:38:50;1.48;;;1.38;;
53245;SDS011;39569;51.090;-1.786;2023-10-31T07:41:17;2.42;;;2.22;;
53245;SDS011;39569;51.090;-1.786;2023-10-31T07:43:43;11.85;;;4.80;;
53245;SDS011;39569;51.090;-1.786;2023-10-31T07:46:10;13.05;;;4.50;;
53245;SDS011;39569;51.090;-1.786;2023-10-31T07:48:38;11.23;;;3.58;;
53245;SDS011;39569;51.090;-1.786;2023-10-31T07:51:05;5.00;;;4.05;;
53245;SDS011;39569;51.090;-1.786;2023-10-31T07:53:32;3.65;;;2.45;;
53245;SDS011;39569;51.090;-1.786;2023-10-31T07:55:58;4.70;;;2.53;;
53245;SDS011;39569;51.090;-1.786;2023-10-31T07:58:25;2.58;;;2.38;;
53245;SDS011;39569;51.090;-1.786;2023-10-31T08:00:52;24.95;;;4.40;;
53245;SDS011;39569;51.090;-1.786;2023-10-31T08:03:18;4.40;;;2.50;;
53245;SDS011;39569;51.090;-1.786;2023-10-31T08:05:47;14.95;;;3.92;;
53245;SDS011;39569;51.090;-1.786;2023-10-31T08:08:13;5.88;;;3.13;;
53245;SDS011;39569;51.090;-1.786;2023-10-31T08:10:40;4.05;;;2.40;;
53245;SDS011;39569;51.090;-1.786;2023-10-31T08:13:07;2.25;;;1.77;;
53245;SDS011;39569;51.090;-1.786;2023-10-31T08:15:33;1.50;;;1.40;;
53245;SDS011;39569;51.090;-1.786;2023-10-31T08:18:00;11.30;;;2.03;;
53245;SDS011;39569;51.090;-1.786;2023-10-31T08:20:27;9.85;;;2.00;;
53245;SDS011;39569;51.090;-1.786;2023-10-31T08:22:59;9.52;;;1.77;;
53245;SDS011;39569;51.090;-1.786;2023-10-31T08:25:26;2.13;;;1.77;;
53245;SDS011;39569;51.090;-1.786;2023-10-31T08:27:53;2.92;;;2.10;;
53245;SDS011;39569;51.090;-1.786;2023-10-31T08:30:20;7.40;;;1.83;;
53245;SDS011;39569;51.090;-1.786;2023-10-31T08:32:47;3.85;;;1.40;;
53245;SDS011;39569;51.090;-1.786;2023-10-31T08:35:13;8.77;;;1.70;;
53245;SDS011;39569;51.090;-1.786;2023-10-31T08:37:40;18.88;;;2.60;;
53245;SDS011;39569;51.090;-1.786;2023-10-31T08:40:09;9.63;;;3.17;;
53245;SDS011;39569;51.090;-1.786;2023-10-31T08:42:36;5.68;;;2.40;;
53245;SDS011;39569;51.090;-1.786;2023-10-31T08:45:03;2.10;;;2.00;;
53245;SDS011;39569;51.090;-1.786;2023-10-31T08:47:30;2.83;;;2.63;;
53245;SDS011;39569;51.090;-1.786;2023-10-31T08:49:57;2.60;;;2.40;;
53245;SDS011;39569;51.090;-1.786;2023-10-31T08:52:23;4.32;;;2.97;;
53245;SDS011;39569;51.090;-1.786;2023-10-31T08:54:50;3.00;;;2.80;;
53245;SDS011;39569;51.090;-1.786;2023-10-31T08:57:18;2.15;;;2.05;;
53245;SDS011;39569;51.090;-1.786;2023-10-31T08:59:45;1.00;;;1.00;;
53245;SDS011;39569;51.090;-1.786;2023-10-31T09:02:12;3.53;;;3.20;;
53245;SDS011;39569;51.090;-1.786;2023-10-31T09:04:39;24.58;;;3.10;;
53245;SDS011;39569;51.090;-1.786;2023-10-31T09:07:05;4.10;;;3.60;;
53245;SDS011;39569;51.090;-1.786;2023-10-31T09:09:32;3.42;;;3.22;;
53245;SDS011;39569;51.090;-1.786;2023-10-31T09:11:59;5.68;;;4.40;;
53245;SDS011;39569;51.090;-1.786;2023-10-31T09:14:27;3.22;;;3.00;;
53245;SDS011;39569;51.090;-1.786;2023-10-31T09:16:54;3.92;;;3.33;;
53245;SDS011;39569;51.090;-1.786;2023-10-31T09:19:20;5.85;;;2.88;;
53245;SDS011;39569;51.090;-1.786;2023-10-31T09:21:47;2.85;;;2.65;;
53245;SDS011;39569;51.090;-1.786;2023-10-31T09:24:14;3.50;;;2.63;;
53245;SDS011;39569;51.090;-1.786;2023-10-31T09:26:41;2.83;;;2.55;;
53245;SDS011;39569;51.090;-1.786;2023-10-31T09:29:08;3.22;;;2.92;;
53245;SDS011;39569;51.090;-1.786;2023-10-31T09:31:37;6.57;;;3.25;;
53245;SDS011;39569;51.090;-1.786;2023-10-31T09:34:04;3.58;;;3.28;;
53245;SDS011;39569;51.090;-1.786;2023-10-31T09:36:32;5.78;;;3.03;;
53245;SDS011;39569;51.090;-1.786;2023-10-31T09:38:59;3.72;;;2.67;;
53245;SDS011;39569;51.090;-1.786;2023-10-31T09:41:26;2.80;;;2.22;;
53245;SDS011;39569;51.090;-1.786;2023-10-31T09:43:53;2.95;;;1.77;;
53245;SDS011;39569;51.090;-1.786;2023-10-31T09:46:20;3.90;;;1.90;;
53245;SDS011;39569;51.090;-1.786;2023-10-31T09:48:49;2.58;;;2.38;;
53245;SDS011;39569;51.090;-1.786;2023-10-31T09:51:16;2.85;;;1.38;;
53245;SDS011;39569;51.090;-1.786;2023-10-31T09:53:44;4.10;;;2.65;;
53245;SDS011;39569;51.090;-1.786;2023-10-31T09:56:11;1.75;;;1.48;;
53245;SDS011;39569;51.090;-1.786;2023-10-31T09:58:38;0.85;;;0.80;;
53245;SDS011;39569;51.090;-1.786;2023-10-31T10:01:06;1.80;;;1.38;;
53245;SDS011;39569;51.090;-1.786;2023-10-31T10:03:33;10.13;;;1.25;;
53245;SDS011;39569;51.090;-1.786;2023-10-31T10:06:01;3.13;;;1.13;;
53245;SDS011;39569;51.090;-1.786;2023-10-31T10:08:29;4.70;;;1.23;;
53245;SDS011;39569;51.090;-1.786;2023-10-31T10:10:55;3.63;;;1.58;;
53245;SDS011;39569;51.090;-1.786;2023-10-31T10:13:22;1.27;;;1.08;;
53245;SDS011;39569;51.090;-1.786;2023-10-31T10:15:49;8.52;;;1.50;;
53245;SDS011;39569;51.090;-1.786;2023-10-31T10:18:25;2.60;;;1.45;;
53245;SDS011;39569;51.090;-1.786;2023-10-31T10:20:55;2.50;;;1.33;;
53245;SDS011;39569;51.090;-1.786;2023-10-31T10:23:25;1.38;;;0.80;;
53245;SDS011;39569;51.090;-1.786;2023-10-31T10:25:53;1.00;;;1.00;;
53245;SDS011;39569;51.090;-1.786;2023-10-31T10:28:20;3.05;;;1.15;;
53245;SDS011;39569;51.090;-1.786;2023-10-31T10:30:47;2.30;;;0.88;;
53245;SDS011;39569;51.090;-1.786;2023-10-31T10:33:13;5.05;;;1.50;;
53245;SDS011;39569;51.090;-1.786;2023-10-31T10:35:40;2.95;;;1.02;;
53245;SDS011;39569;51.090;-1.786;2023-10-31T10:38:10;2.00;;;1.33;;
53245;SDS011;39569;51.090;-1.786;2023-10-31T10:40:41;2.58;;;1.17;;
53245;SDS011;39569;51.090;-1.786;2023-10-31T10:43:12;1.02;;;0.85;;
53245;SDS011;39569;51.090;-1.786;2023-10-31T10:45:42;2.53;;;1.35;;
53245;SDS011;39569;51.090;-1.786;2023-10-31T10:48:10;3.00;;;1.20;;
53245;SDS011;39569;51.090;-1.786;2023-10-31T10:50:41;0.80;;;0.77;;
53245;SDS011;39569;51.090;-1.786;2023-10-31T10:53:11;4.03;;;2.25;;
53245;SDS011;39569;51.090;-1.786;2023-10-31T10:55:45;5.57;;;2.22;;
53245;SDS011;39569;51.090;-1.786;2023-10-31T10:58:18;3.78;;;1.50;;
53245;SDS011;39569;51.090;-1.786;2023-10-31T11:00:52;2.58;;;1.80;;
53245;SDS011;39569;51.090;-1.786;2023-10-31T11:03:21;1.02;;;0.93;;
53245;SDS011;39569;51.090;-1.786;2023-10-31T11:05:50;2.30;;;1.20;;
53245;SDS011;39569;51.090;-1.786;2023-10-31T11:08:17;3.20;;;1.77;;
53245;SDS011;39569;51.090;-1.786;2023-10-31T11:10:47;1.98;;;1.65;;
53245;SDS011;39569;51.090;-1.786;2023-10-31T11:13:15;2.88;;;1.17;;
53245;SDS011;39569;51.090;-1.786;2023-10-31T11:15:42;2.78;;;2.20;;
53245;SDS011;39569;51.090;-1.786;2023-10-31T11:18:10;3.40;;;1.90;;
53245;SDS011;39569;51.090;-1.786;2023-10-31T11:20:37;4.05;;;1.88;;
53245;SDS011;39569;51.090;-1.786;2023-10-31T11:23:05;3.83;;;1.60;;
53245;SDS011;39569;51.090;-1.786;2023-10-31T11:25:32;1.98;;;1.52;;
53245;SDS011;39569;51.090;-1.786;2023-10-31T11:28:13;3.03;;;1.30;;
53245;SDS011;39569;51.090;-1.786;2023-10-31T11:30:41;6.55;;;1.45;;
53245;SDS011;39569;51.090;-1.786;2023-10-31T11:33:11;2.40;;;1.20;;
53245;SDS011;39569;51.090;-1.786;2023-10-31T11:35:38;1.00;;;0.80;;
53245;SDS011;39569;51.090;-1.786;2023-10-31T11:38:07;1.55;;;1.23;;
53245;SDS011;39569;51.090;-1.786;2023-10-31T11:40:36;2.78;;;1.23;;
53245;SDS011;39569;51.090;-1.786;2023-10-31T11:43:04;7.70;;;1.75;;
53245;SDS011;39569;51.090;-1.786;2023-10-31T11:45:35;3.45;;;1.55;;
53245;SDS011;39569;51.090;-1.786;2023-10-31T11:48:03;2.42;;;1.08;;
53245;SDS011;39569;51.090;-1.786;2023-10-31T11:50:31;6.95;;;1.75;;
53245;SDS011;39569;51.090;-1.786;2023-10-31T11:53:02;9.57;;;1.75;;
53245;SDS011;39569;51.090;-1.786;2023-10-31T11:55:31;7.18;;;1.90;;
53245;SDS011;39569;51.090;-1.786;2023-10-31T11:58:11;11.85;;;1.98;;
53245;SDS011;39569;51.090;-1.786;2023-10-31T12:00:40;4.65;;;1.98;;
53245;SDS011;39569;51.090;-1.786;2023-10-31T12:03:07;4.63;;;1.98;;
53245;SDS011;39569;51.090;-1.786;2023-10-31T12:05:34;1.50;;;1.27;;
53245;SDS011;39569;51.090;-1.786;2023-10-31T12:08:00;2.72;;;1.27;;
53245;SDS011;39569;51.090;-1.786;2023-10-31T12:10:28;3.13;;;1.52;;
53245;SDS011;39569;51.090;-1.786;2023-10-31T12:12:56;8.60;;;2.03;;
53245;SDS011;39569;51.090;-1.786;2023-10-31T12:15:24;2.47;;;1.48;;
53245;SDS011;39569;51.090;-1.786;2023-10-31T12:17:52;2.65;;;1.20;;
53245;SDS011;39569;51.090;-1.786;2023-10-31T12:20:23;2.97;;;1.20;;
53245;SDS011;39569;51.090;-1.786;2023-10-31T12:23:00;4.55;;;1.52;;
53245;SDS011;39569;51.090;-1.786;2023-10-31T12:25:27;2.88;;;1.63;;
53245;SDS011;39569;51.090;-1.786;2023-10-31T12:27:54;3.83;;;1.38;;
53245;SDS011;39569;51.090;-1.786;2023-10-31T12:30:21;8.55;;;2.17;;
53245;SDS011;39569;51.090;-1.786;2023-10-31T12:32:54;4.53;;;1.52;;
53245;SDS011;39569;51.090;-1.786;2023-10-31T12:35:22;5.30;;;1.65;;
53245;SDS011;39569;51.090;-1.786;2023-10-31T12:37:52;3.42;;;1.67;;
53245;SDS011;39569;51.090;-1.786;2023-10-31T12:40:22;2.60;;;1.83;;
53245;SDS011;39569;51.090;-1.786;2023-10-31T12:42:51;6.57;;;2.40;;
53245;SDS011;39569;51.090;-1.786;2023-10-31T12:45:18;3.95;;;1.52;;
53245;SDS011;39569;51.090;-1.786;2023-10-31T12:50:30;3.53;;;1.30;;
53245;SDS011;39569;51.090;-1.786;2023-10-31T12:52:57;4.53;;;1.70;;
53245;SDS011;39569;51.090;-1.786;2023-10-31T12:55:25;4.38;;;1.55;;
53245;SDS011;39569;51.090;-1.786;2023-10-31T12:57:53;6.80;;;2.33;;
53245;SDS011;39569;51.090;-1.786;2023-10-31T13:00:21;5.88;;;1.55;;
53245;SDS011;39569;51.090;-1.786;2023-10-31T13:02:51;9.25;;;1.98;;
53245;SDS011;39569;51.090;-1.786;2023-10-31T13:05:20;3.63;;;1.58;;
53245;SDS011;39569;51.090;-1.786;2023-10-31T13:07:52;6.93;;;1.60;;
53245;SDS011;39569;51.090;-1.786;2023-10-31T13:10:22;4.15;;;1.90;;
53245;SDS011;39569;51.090;-1.786;2023-10-31T13:12:49;2.55;;;1.75;;
53245;SDS011;39569;51.090;-1.786;2023-10-31T13:15:16;3.38;;;1.88;;
53245;SDS011;39569;51.090;-1.786;2023-10-31T13:17:44;5.28;;;1.75;;
53245;SDS011;39569;51.090;-1.786;2023-10-31T13:20:12;6.63;;;2.17;;
53245;SDS011;39569;51.090;-1.786;2023-10-31T13:22:41;6.32;;;1.27;;
53245;SDS011;39569;51.090;-1.786;2023-10-31T13:25:08;2.78;;;1.83;;
53245;SDS011;39569;51.090;-1.786;2023-10-31T13:27:36;4.57;;;2.45;;
53245;SDS011;39569;51.090;-1.786;2023-10-31T13:30:06;7.93;;;2.72;;
53245;SDS011;39569;51.090;-1.786;2023-10-31T13:32:34;1.92;;;1.45;;
53245;SDS011;39569;51.090;-1.786;2023-10-31T13:35:01;7.43;;;2.67;;
53245;SDS011;39569;51.090;-1.786;2023-10-31T13:37:28;2.13;;;1.48;;
53245;SDS011;39569;51.090;-1.786;2023-10-31T13:39:56;5.32;;;1.85;;
53245;SDS011;39569;51.090;-1.786;2023-10-31T13:42:23;4.78;;;1.85;;
53245;SDS011;39569;51.090;-1.786;2023-10-31T13:44:50;6.55;;;2.35;;
53245;SDS011;39569;51.090;-1.786;2023-10-31T13:47:17;9.32;;;2.88;;
53245;SDS011;39569;51.090;-1.786;2023-10-31T13:49:44;7.35;;;2.22;;
53245;SDS011;39569;51.090;-1.786;2023-10-31T13:52:11;19.67;;;2.30;;
53245;SDS011;39569;51.090;-1.786;2023-10-31T13:54:38;4.30;;;1.95;;
53245;SDS011;39569;51.090;-1.786;2023-10-31T13:57:06;7.03;;;2.17;;
53245;SDS011;39569;51.090;-1.786;2023-10-31T13:59:33;5.80;;;1.83;;
53245;SDS011;39569;51.090;-1.786;2023-10-31T14:02:00;7.55;;;3.05;;
53245;SDS011;39569;51.090;-1.786;2023-10-31T14:04:26;2.65;;;1.75;;
53245;SDS011;39569;51.090;-1.786;2023-10-31T14:06:54;6.63;;;1.77;;
53245;SDS011;39569;51.090;-1.786;2023-10-31T14:09:20;10.82;;;2.30;;
53245;SDS011;39569;51.090;-1.786;2023-10-31T14:11:47;5.47;;;3.28;;
53245;SDS011;39569;51.090;-1.786;2023-10-31T14:14:15;6.85;;;2.80;;
53245;SDS011;39569;51.090;-1.786;2023-10-31T14:16:42;12.18;;;4.00;;
53245;SDS011;39569;51.090;-1.786;2023-10-31T14:19:09;11.70;;;2.88;;
53245;SDS011;39569;51.090;-1.786;2023-10-31T14:21:38;6.97;;;2.17;;
53245;SDS011;39569;51.090;-1.786;2023-10-31T14:24:05;8.40;;;3.65;;
53245;SDS011;39569;51.090;-1.786;2023-10-31T14:26:33;8.65;;;3.17;;
53245;SDS011;39569;51.090;-1.786;2023-10-31T14:29:01;9.52;;;2.97;;
53245;SDS011;39569;51.090;-1.786;2023-10-31T14:31:29;8.27;;;3.63;;
53245;SDS011;39569;51.090;-1.786;2023-10-31T14:33:56;6.70;;;2.50;;
53245;SDS011;39569;51.090;-1.786;2023-10-31T14:36:24;8.60;;;2.80;;
53245;SDS011;39569;51.090;-1.786;2023-10-31T14:38:51;5.85;;;2.05;;
53245;SDS011;39569;51.090;-1.786;2023-10-31T14:41:17;15.57;;;3.00;;